<?xml version="1.0" encoding="utf-8"?>
<gpx xmlns:xsi="http://www.w3.org/2001/XMLSchema-instance" xmlns:xsd="http://www.w3.org/2001/XMLSchema" version="1.1" creator="Shapelink.com" xmlns="http://www.topografix.com/GPX/1/1" xmlns:gpxtpx="http://www.garmin.com/xmlschemas/TrackPointExtension/v1">
  <metadata>
    <name>Övrigt 2.30 km, 2019-05-04</name>
    <desc></desc>
    <author><name>Marian Moron</name></author> 
    <time>2019-05-04T20:20:32Z</time>
  </metadata>
  <trk>
    <name>Övrigt 2.30 km, 2019-05-04</name>
    <trkseg>
      <trkpt lat="51.229803242029" lon="4.458040668423">
        <ele>0</ele>
        <time>2019-05-04T20:20:32Z</time>
      </trkpt>
      <trkpt lat="51.229970544753" lon="4.458614660935">
        <ele>5</ele>
        <time>2019-05-04T20:21:32Z</time>
      </trkpt>
      <trkpt lat="51.230239603743" lon="4.458885563943">
        <ele>1.4</ele>
        <time>2019-05-04T20:22:17Z</time>
      </trkpt>
      <trkpt lat="51.230282016157" lon="4.458873074912">
        <ele>1.8</ele>
        <time>2019-05-04T20:22:20Z</time>
      </trkpt>
      <trkpt lat="51.230278747216" lon="4.458911631652">
        <ele>5.6</ele>
        <time>2019-05-04T20:22:26Z</time>
      </trkpt>
      <trkpt lat="51.230264917081" lon="4.459000060697">
        <ele>6.8</ele>
        <time>2019-05-04T20:22:30Z</time>
      </trkpt>
      <trkpt lat="51.230392824875" lon="4.459271550438">
        <ele>8.6</ele>
        <time>2019-05-04T20:22:50Z</time>
      </trkpt>
      <trkpt lat="51.230491563657" lon="4.459643036246">
        <ele>11</ele>
        <time>2019-05-04T20:23:29Z</time>
      </trkpt>
      <trkpt lat="51.230571610802" lon="4.459776140818">
        <ele>9.8</ele>
        <time>2019-05-04T20:24:04Z</time>
      </trkpt>
      <trkpt lat="51.230573538639" lon="4.4597826787">
        <ele>9.6</ele>
        <time>2019-05-04T20:24:23Z</time>
      </trkpt>
      <trkpt lat="51.230572281354" lon="4.459766333995">
        <ele>9.6</ele>
        <time>2019-05-04T20:24:26Z</time>
      </trkpt>
      <trkpt lat="51.230637408717" lon="4.460036147356">
        <ele>0</ele>
        <time>2019-05-04T20:26:31Z</time>
      </trkpt>
      <trkpt lat="51.2307343873" lon="4.460208730677">
        <ele>0</ele>
        <time>2019-05-04T20:26:50Z</time>
      </trkpt>
      <trkpt lat="51.230813847712" lon="4.46089914778">
        <ele>0</ele>
        <time>2019-05-04T20:27:36Z</time>
      </trkpt>
      <trkpt lat="51.230819463585" lon="4.460932340104">
        <ele>0</ele>
        <time>2019-05-04T20:27:38Z</time>
      </trkpt>
      <trkpt lat="51.230935720538" lon="4.461175582842">
        <ele>0</ele>
        <time>2019-05-04T20:27:58Z</time>
      </trkpt>
      <trkpt lat="51.231141831459" lon="4.461717975591">
        <ele>0</ele>
        <time>2019-05-04T20:28:40Z</time>
      </trkpt>
      <trkpt lat="51.231207461736" lon="4.461858791511">
        <ele>0</ele>
        <time>2019-05-04T20:29:40Z</time>
      </trkpt>
      <trkpt lat="51.231327155268" lon="4.46175577796">
        <ele>0</ele>
        <time>2019-05-04T20:30:05Z</time>
      </trkpt>
      <trkpt lat="51.231390438613" lon="4.461992818092">
        <ele>0</ele>
        <time>2019-05-04T20:30:30Z</time>
      </trkpt>
      <trkpt lat="51.231404687843" lon="4.461876393501">
        <ele>0</ele>
        <time>2019-05-04T20:31:06Z</time>
      </trkpt>
      <trkpt lat="51.231526644488" lon="4.46164010774">
        <ele>0</ele>
        <time>2019-05-04T20:31:26Z</time>
      </trkpt>
      <trkpt lat="51.231708112623" lon="4.4610567275">
        <ele>0</ele>
        <time>2019-05-04T20:32:01Z</time>
      </trkpt>
      <trkpt lat="51.231747507553" lon="4.460962682582">
        <ele>0</ele>
        <time>2019-05-04T20:32:10Z</time>
      </trkpt>
      <trkpt lat="51.231719344369" lon="4.460250975453">
        <ele>0</ele>
        <time>2019-05-04T20:32:48Z</time>
      </trkpt>
      <trkpt lat="51.23150384572" lon="4.459920058041">
        <ele>0</ele>
        <time>2019-05-04T20:33:37Z</time>
      </trkpt>
      <trkpt lat="51.231573583128" lon="4.459959369152">
        <ele>0</ele>
        <time>2019-05-04T20:33:46Z</time>
      </trkpt>
      <trkpt lat="51.231739460929" lon="4.460218034586">
        <ele>0</ele>
        <time>2019-05-04T20:34:18Z</time>
      </trkpt>
      <trkpt lat="51.231812467278" lon="4.460435125796">
        <ele>0</ele>
        <time>2019-05-04T20:34:37Z</time>
      </trkpt>
      <trkpt lat="51.231885557446" lon="4.460700915845">
        <ele>0</ele>
        <time>2019-05-04T20:34:58Z</time>
      </trkpt>
      <trkpt lat="51.231875834442" lon="4.460890682061">
        <ele>0</ele>
        <time>2019-05-04T20:35:19Z</time>
      </trkpt>
      <trkpt lat="51.231930903525" lon="4.461411952422">
        <ele>0</ele>
        <time>2019-05-04T20:36:46Z</time>
      </trkpt>
      <trkpt lat="51.23202771447" lon="4.461476241595">
        <ele>0</ele>
        <time>2019-05-04T20:37:02Z</time>
      </trkpt>
      <trkpt lat="51.232048501582" lon="4.461513708688">
        <ele>0</ele>
        <time>2019-05-04T20:37:05Z</time>
      </trkpt>
      <trkpt lat="51.232107258701" lon="4.461710599519">
        <ele>0</ele>
        <time>2019-05-04T20:37:34Z</time>
      </trkpt>
      <trkpt lat="51.232166267277" lon="4.461914950241">
        <ele>0.4</ele>
        <time>2019-05-04T20:37:50Z</time>
      </trkpt>
      <trkpt lat="51.232182528163" lon="4.462201275945">
        <ele>1</ele>
        <time>2019-05-04T20:38:17Z</time>
      </trkpt>
      <trkpt lat="51.232230472631" lon="4.46226623567">
        <ele>3.8</ele>
        <time>2019-05-04T20:38:33Z</time>
      </trkpt>
      <trkpt lat="51.232383526125" lon="4.462849867367">
        <ele>7.2</ele>
        <time>2019-05-04T20:39:17Z</time>
      </trkpt>
      <trkpt lat="51.232503638752" lon="4.463544726877">
        <ele>3.8</ele>
        <time>2019-05-04T20:39:57Z</time>
      </trkpt>
      <trkpt lat="51.232505734227" lon="4.46406750598">
        <ele>1.8</ele>
        <time>2019-05-04T20:40:29Z</time>
      </trkpt>
      <trkpt lat="51.232505650408" lon="4.464130286411">
        <ele>1.4</ele>
        <time>2019-05-04T20:40:33Z</time>
      </trkpt>
      <trkpt lat="51.232517804163" lon="4.464158365776">
        <ele>0.6</ele>
        <time>2019-05-04T20:40:35Z</time>
      </trkpt>
      <trkpt lat="51.232498106698" lon="4.464317789514">
        <ele>0</ele>
        <time>2019-05-04T20:40:50Z</time>
      </trkpt>
      <trkpt lat="51.232442283244" lon="4.464384425619">
        <ele>0</ele>
        <time>2019-05-04T20:41:07Z</time>
      </trkpt>
      <trkpt lat="51.232199711058" lon="4.464988341514">
        <ele>0</ele>
        <time>2019-05-04T20:41:40Z</time>
      </trkpt>
      <trkpt lat="51.232119663913" lon="4.465243989464">
        <ele>0</ele>
        <time>2019-05-04T20:42:05Z</time>
      </trkpt>
      <trkpt lat="51.232030145221" lon="4.465450435661">
        <ele>0</ele>
        <time>2019-05-04T20:42:31Z</time>
      </trkpt>
      <trkpt lat="51.231948589334" lon="4.46560307006">
        <ele>0</ele>
        <time>2019-05-04T20:42:49Z</time>
      </trkpt>
      <trkpt lat="51.231680536172" lon="4.466182007893">
        <ele>0</ele>
        <time>2019-05-04T20:43:28Z</time>
      </trkpt>
      <trkpt lat="51.231416171046" lon="4.466676456174">
        <ele>0</ele>
        <time>2019-05-04T20:44:22Z</time>
      </trkpt>
      <trkpt lat="51.231409381707" lon="4.466713168896">
        <ele>0</ele>
        <time>2019-05-04T20:44:28Z</time>
      </trkpt>
      <trkpt lat="51.231373339537" lon="4.466780810829">
        <ele>0</ele>
        <time>2019-05-04T20:44:34Z</time>
      </trkpt>
      <trkpt lat="51.231304775595" lon="4.46691819017">
        <ele>0</ele>
        <time>2019-05-04T20:44:43Z</time>
      </trkpt>
      <trkpt lat="51.231288011795" lon="4.466953058874">
        <ele>0</ele>
        <time>2019-05-04T20:44:46Z</time>
      </trkpt>
      <trkpt lat="51.231258423688" lon="4.467018353875">
        <ele>0</ele>
        <time>2019-05-04T20:44:52Z</time>
      </trkpt>
      <trkpt lat="51.23114007126" lon="4.467177861432">
        <ele>0</ele>
        <time>2019-05-04T20:45:08Z</time>
      </trkpt>
      <trkpt lat="51.230926751905" lon="4.467233517248">
        <ele>0</ele>
        <time>2019-05-04T20:45:37Z</time>
      </trkpt>
      <trkpt lat="51.230738913526" lon="4.467286742313">
        <ele>0</ele>
        <time>2019-05-04T20:46:11Z</time>
      </trkpt>
      <trkpt lat="51.23066230296" lon="4.46705984428">
        <ele>0</ele>
        <time>2019-05-04T20:46:40Z</time>
      </trkpt>
      <trkpt lat="51.230725921581" lon="4.466354004481">
        <ele>0</ele>
        <time>2019-05-04T20:47:40Z</time>
      </trkpt>
      <trkpt lat="51.230752240747" lon="4.465823346392">
        <ele>4</ele>
        <time>2019-05-04T20:48:14Z</time>
      </trkpt>
      <trkpt lat="51.230738913526" lon="4.465526962408">
        <ele>0</ele>
        <time>2019-05-04T20:48:37Z</time>
      </trkpt>
      <trkpt lat="51.230721982088" lon="4.465077273473">
        <ele>0</ele>
        <time>2019-05-04T20:49:15Z</time>
      </trkpt>
      <trkpt lat="51.230725837762" lon="4.465052965963">
        <ele>0</ele>
        <time>2019-05-04T20:49:19Z</time>
      </trkpt>
      <trkpt lat="51.230730950721" lon="4.464994963215">
        <ele>0</ele>
        <time>2019-05-04T20:49:23Z</time>
      </trkpt>
      <trkpt lat="51.230628942998" lon="4.464299014058">
        <ele>0.4</ele>
        <time>2019-05-04T20:50:06Z</time>
      </trkpt>
      <trkpt lat="51.230514530063" lon="4.464023668643">
        <ele>0.6</ele>
        <time>2019-05-04T20:50:59Z</time>
      </trkpt>
      <trkpt lat="51.230385197346" lon="4.463723931899">
        <ele>0.4</ele>
        <time>2019-05-04T20:51:21Z</time>
      </trkpt>
      <trkpt lat="51.230186043402" lon="4.463077687409">
        <ele>0</ele>
        <time>2019-05-04T20:51:59Z</time>
      </trkpt>
      <trkpt lat="51.229972388771" lon="4.462450721289">
        <ele>0</ele>
        <time>2019-05-04T20:52:30Z</time>
      </trkpt>
      <trkpt lat="51.229844564796" lon="4.461750078268">
        <ele>0</ele>
        <time>2019-05-04T20:53:02Z</time>
      </trkpt>
      <trkpt lat="51.229836518172" lon="4.461550924324">
        <ele>0</ele>
        <time>2019-05-04T20:53:13Z</time>
      </trkpt>
      <trkpt lat="51.229633340916" lon="4.461097631172">
        <ele>0</ele>
        <time>2019-05-04T20:53:39Z</time>
      </trkpt>
      <trkpt lat="51.229247270602" lon="4.461194023022">
        <ele>0</ele>
        <time>2019-05-04T20:54:18Z</time>
      </trkpt>
      <trkpt lat="51.2287981684" lon="4.461261413498">
        <ele>10.4</ele>
        <time>2019-05-04T20:54:56Z</time>
      </trkpt>
      <trkpt lat="51.228464652599" lon="4.46141212006">
        <ele>18</ele>
        <time>2019-05-04T20:55:33Z</time>
      </trkpt>
      <trkpt lat="51.228373038432" lon="4.460932507742">
        <ele>3.2</ele>
        <time>2019-05-04T20:56:31Z</time>
      </trkpt>
      <trkpt lat="51.228174471221" lon="4.46063595612">
        <ele>5</ele>
        <time>2019-05-04T20:57:09Z</time>
      </trkpt>
      <trkpt lat="51.228123509269" lon="4.460455074718">
        <ele>3.6</ele>
        <time>2019-05-04T20:57:26Z</time>
      </trkpt>
      <trkpt lat="51.228336493348" lon="4.460150560291">
        <ele>1.6</ele>
        <time>2019-05-04T20:57:58Z</time>
      </trkpt>
      <trkpt lat="51.228461467477" lon="4.459464417957">
        <ele>0</ele>
        <time>2019-05-04T20:58:36Z</time>
      </trkpt>
      <trkpt lat="51.228540173518" lon="4.459028726795">
        <ele>0</ele>
        <time>2019-05-04T20:59:06Z</time>
      </trkpt>
      <trkpt lat="51.228532881265" lon="4.458873410188">
        <ele>0</ele>
        <time>2019-05-04T20:59:15Z</time>
      </trkpt>
      <trkpt lat="51.228518045302" lon="4.458592197443">
        <ele>0</ele>
        <time>2019-05-04T20:59:30Z</time>
      </trkpt>
      <trkpt lat="51.22852240389" lon="4.458516760343">
        <ele>1.2</ele>
        <time>2019-05-04T20:59:34Z</time>
      </trkpt>
      <trkpt lat="51.22857856262" lon="4.458146280363">
        <ele>3</ele>
        <time>2019-05-04T21:00:28Z</time>
      </trkpt>
      <trkpt lat="51.228674200099" lon="4.458165642552">
        <ele>3.8</ele>
        <time>2019-05-04T21:00:41Z</time>
      </trkpt>
      <trkpt lat="51.228823146462" lon="4.458174359728">
        <ele>1.6</ele>
        <time>2019-05-04T21:00:57Z</time>
      </trkpt>
      <trkpt lat="51.229081141344" lon="4.458184501827">
        <ele>9.2</ele>
        <time>2019-05-04T21:01:30Z</time>
      </trkpt>
      <trkpt lat="51.22951230628" lon="4.457980151105">
        <ele>0</ele>
        <time>2019-05-04T21:02:13Z</time>
      </trkpt>
      <trkpt lat="51.229620768066" lon="4.457946791143">
        <ele>0</ele>
        <time>2019-05-04T21:02:26Z</time>
      </trkpt>
      <trkpt lat="51.229807768255" lon="4.457920304339">
        <ele>2.4</ele>
        <time>2019-05-04T21:02:45Z</time>
      </trkpt>
      <trkpt lat="51.2297117955" lon="4.458004542434">
        <ele>0</ele>
        <time>2019-05-04T21:03:16Z</time>
      </trkpt>
    </trkseg>
  </trk>
</gpx>